createdAt,value
2018-07-06T00:02:19.100Z,3.10
2018-07-06T00:04:56.590Z,3.30
2018-07-06T00:07:33.169Z,2.90
2018-07-06T00:10:09.961Z,2.97
2018-07-06T00:12:46.435Z,3.10
2018-07-06T00:15:23.388Z,2.93
2018-07-06T00:17:59.806Z,3.30
2018-07-06T00:20:36.254Z,3.20
2018-07-06T00:23:11.487Z,3.13
2018-07-06T00:25:48.336Z,3.40
2018-07-06T00:28:26.083Z,3.40
2018-07-06T00:31:02.595Z,3.03
2018-07-06T00:33:36.191Z,3.17
2018-07-06T00:36:10.163Z,3.60
2018-07-06T00:38:43.547Z,3.47
2018-07-06T00:41:17.101Z,3.40
2018-07-06T00:43:50.595Z,3.70
2018-07-06T00:46:24.091Z,3.67
2018-07-06T00:48:57.542Z,4.00
2018-07-06T00:51:30.971Z,3.77
2018-07-06T00:54:04.484Z,4.30
2018-07-06T00:56:37.980Z,4.40
2018-07-06T00:59:11.466Z,4.03
2018-07-06T01:01:44.958Z,3.70
2018-07-06T01:04:18.318Z,3.90
2018-07-06T01:06:51.712Z,4.10
2018-07-06T01:09:25.127Z,4.30
2018-07-06T01:12:02.948Z,4.37
2018-07-06T01:14:36.567Z,4.30
2018-07-06T01:17:14.421Z,4.23
2018-07-06T01:19:47.971Z,4.03
2018-07-06T01:22:21.467Z,3.97
2018-07-06T01:24:54.901Z,4.10
2018-07-06T01:27:28.464Z,4.43
2018-07-06T01:30:05.394Z,4.40
2018-07-06T01:32:39.032Z,4.70
2018-07-06T01:35:12.507Z,4.67
2018-07-06T01:37:46.187Z,4.17
2018-07-06T01:40:19.804Z,4.60
2018-07-06T01:42:53.394Z,4.83
2018-07-06T01:45:27.070Z,5.10
2018-07-06T01:48:00.618Z,4.97
2018-07-06T01:50:34.110Z,4.80
2018-07-06T01:53:07.790Z,4.80
2018-07-06T01:55:41.437Z,4.40
2018-07-06T01:58:15.044Z,4.57
2018-07-06T02:00:48.611Z,5.10
2018-07-06T02:03:22.215Z,4.57
2018-07-06T02:05:56.010Z,4.77
2018-07-06T02:08:29.639Z,4.50
2018-07-06T02:11:03.355Z,4.63
2018-07-06T02:13:36.987Z,4.53
2018-07-06T02:16:10.523Z,4.50
2018-07-06T02:18:44.098Z,4.50
2018-07-06T02:21:17.871Z,4.37
2018-07-06T02:23:51.430Z,4.77
2018-07-06T02:26:25.217Z,4.67
2018-07-06T02:28:58.769Z,4.83
2018-07-06T02:31:32.363Z,4.83
2018-07-06T02:34:05.936Z,4.97
2018-07-06T02:36:39.467Z,5.33
2018-07-06T02:39:13.005Z,5.07
2018-07-06T02:41:46.563Z,5.40
2018-07-06T02:44:20.174Z,4.20
2018-07-06T02:46:53.621Z,5.27
2018-07-06T02:49:27.242Z,4.77
2018-07-06T02:52:00.730Z,5.00
2018-07-06T02:54:34.400Z,4.67
2018-07-06T02:57:08.020Z,5.20
2018-07-06T02:59:41.634Z,5.03
2018-07-06T03:02:15.287Z,4.77
2018-07-06T03:04:48.878Z,4.97
2018-07-06T03:07:22.443Z,5.20
2018-07-06T03:09:56.010Z,5.40
2018-07-06T03:12:29.540Z,4.77
2018-07-06T03:15:03.246Z,5.10
2018-07-06T03:17:36.996Z,5.10
2018-07-06T03:20:10.670Z,5.17
2018-07-06T03:22:44.423Z,5.23
2018-07-06T03:25:17.987Z,4.60
2018-07-06T03:27:51.596Z,4.60
2018-07-06T03:30:25.208Z,5.37
2018-07-06T03:32:58.754Z,5.00
2018-07-06T03:35:32.292Z,4.67
2018-07-06T03:38:05.875Z,5.20
2018-07-06T03:40:39.455Z,5.03
2018-07-06T03:43:13.064Z,5.07
2018-07-06T03:45:46.639Z,5.03
2018-07-06T03:48:20.272Z,4.60
2018-07-06T03:50:53.851Z,4.47
2018-07-06T03:53:27.382Z,4.87
2018-07-06T03:56:00.950Z,4.80
2018-07-06T03:58:34.538Z,4.77
2018-07-06T04:01:08.115Z,5.20
2018-07-06T04:03:41.785Z,4.90
2018-07-06T04:06:15.339Z,4.70
2018-07-06T04:08:48.862Z,4.80
2018-07-06T04:11:22.459Z,4.33
2018-07-06T04:13:56.339Z,4.97
2018-07-06T04:16:29.922Z,4.50
2018-07-06T04:19:07.905Z,4.83
2018-07-06T04:21:41.514Z,4.70
2018-07-06T04:24:15.479Z,4.53
2018-07-06T04:26:48.983Z,4.40
2018-07-06T04:29:22.568Z,4.30
2018-07-06T04:31:56.009Z,4.57
2018-07-06T04:34:29.597Z,4.70
2018-07-06T04:37:03.174Z,4.50
2018-07-06T04:39:36.733Z,4.73
2018-07-06T04:42:10.335Z,4.47
2018-07-06T04:44:44.005Z,4.30
2018-07-06T04:47:17.556Z,4.20
2018-07-06T04:49:51.109Z,4.00
2018-07-06T04:52:24.599Z,3.87
2018-07-06T04:54:58.093Z,4.50
2018-07-06T04:57:31.709Z,4.17
2018-07-06T05:00:05.439Z,4.07
2018-07-06T05:02:39.099Z,4.37
2018-07-06T05:05:12.750Z,4.27
2018-07-06T05:07:46.461Z,3.97
2018-07-06T05:10:20.110Z,4.03
2018-07-06T05:12:53.645Z,3.83
2018-07-06T05:15:27.455Z,4.50
2018-07-06T05:18:01.104Z,3.70
2018-07-06T05:20:34.572Z,4.00
2018-07-06T05:23:08.171Z,3.90
2018-07-06T05:25:41.700Z,4.33
2018-07-06T05:28:15.266Z,4.07
2018-07-06T05:30:48.881Z,4.03
2018-07-06T05:33:22.729Z,4.40
2018-07-06T05:35:56.382Z,4.77
2018-07-06T05:38:30.333Z,4.13
2018-07-06T05:41:03.942Z,4.03
2018-07-06T05:43:37.489Z,4.53
2018-07-06T05:46:10.970Z,5.27
2018-07-06T05:48:44.511Z,4.60
2018-07-06T05:51:18.088Z,5.07
2018-07-06T05:53:54.319Z,4.20
2018-07-06T05:59:01.539Z,5.17
2018-07-06T06:01:35.215Z,5.07
2018-07-06T06:04:08.756Z,7.43
2018-07-06T06:06:42.304Z,6.40
2018-07-06T06:09:09.998Z,5.23
2018-07-06T06:11:38.138Z,5.00
2018-07-06T06:14:06.182Z,5.80
2018-07-06T06:16:34.257Z,5.60
2018-07-06T06:19:02.365Z,5.93
2018-07-06T06:21:30.424Z,5.57
2018-07-06T06:23:58.526Z,5.57
2018-07-06T06:26:29.364Z,6.23
2018-07-06T06:28:57.434Z,7.43
2018-07-06T06:31:25.770Z,7.07
2018-07-06T06:33:53.951Z,7.20
2018-07-06T06:36:21.969Z,12.83
2018-07-06T06:38:50.046Z,9.20
2018-07-06T06:41:18.405Z,7.67
2018-07-06T06:43:46.490Z,8.13
2018-07-06T06:46:14.580Z,9.23
2018-07-06T06:48:42.733Z,9.47
2018-07-06T06:51:11.167Z,7.87
2018-07-06T06:53:39.831Z,8.53
2018-07-06T06:56:07.960Z,8.53
2018-07-06T06:58:36.099Z,9.37
2018-07-06T07:01:04.255Z,8.03
2018-07-06T07:03:32.291Z,8.07
2018-07-06T07:06:00.366Z,8.17
2018-07-06T07:08:28.383Z,8.40
2018-07-06T07:10:56.591Z,10.17
2018-07-06T07:13:24.737Z,9.70
2018-07-06T07:15:52.769Z,7.53
2018-07-06T07:18:20.762Z,10.00
2018-07-06T07:20:48.743Z,9.97
2018-07-06T07:23:16.737Z,8.43
2018-07-06T07:25:44.780Z,8.33
2018-07-06T07:28:13.097Z,7.33
2018-07-06T07:30:41.103Z,7.33
2018-07-06T07:33:09.137Z,6.27
2018-07-06T07:35:37.113Z,6.53
2018-07-06T07:38:05.149Z,6.80
2018-07-06T07:40:33.132Z,8.43
2018-07-06T07:43:01.145Z,6.23
2018-07-06T07:45:29.139Z,6.73
2018-07-06T07:47:57.142Z,9.07
2018-07-06T07:50:25.182Z,8.73
2018-07-06T07:52:58.771Z,7.83
2018-07-06T07:55:26.763Z,7.80
2018-07-06T07:57:54.779Z,7.07
2018-07-06T08:00:22.836Z,7.43
2018-07-06T08:02:50.778Z,8.87
2018-07-06T08:05:18.804Z,7.87
2018-07-06T08:07:46.867Z,6.30
2018-07-06T08:10:14.885Z,6.07
2018-07-06T08:12:42.889Z,5.67
2018-07-06T08:15:10.921Z,8.87
2018-07-06T08:17:38.897Z,5.57
2018-07-06T08:20:06.910Z,5.63
2018-07-06T08:22:34.969Z,7.70
2018-07-06T08:25:03.002Z,6.37
2018-07-06T08:27:31.028Z,5.90
2018-07-06T08:29:59.019Z,7.13
2018-07-06T08:32:27.042Z,5.93
2018-07-06T08:35:00.735Z,6.87
2018-07-06T08:37:35.999Z,5.70
2018-07-06T08:40:03.981Z,6.43
2018-07-06T08:42:33.003Z,5.67
2018-07-06T08:45:01.375Z,5.87
2018-07-06T08:47:29.493Z,5.70
2018-07-06T08:49:58.274Z,5.93
2018-07-06T08:52:26.564Z,7.37
2018-07-06T08:54:54.593Z,5.47
2018-07-06T08:57:23.695Z,5.27
2018-07-06T08:59:52.197Z,6.27
2018-07-06T09:02:20.498Z,6.00
2018-07-06T09:07:33.795Z,7.93
2018-07-06T09:10:02.134Z,9.43
2018-07-06T09:12:30.117Z,6.20
2018-07-06T09:14:58.567Z,7.70
2018-07-06T09:17:26.727Z,8.43
2018-07-06T09:19:55.785Z,5.47
2018-07-06T09:22:23.776Z,6.77
2018-07-06T09:24:54.044Z,7.03
2018-07-06T09:27:22.065Z,7.03
2018-07-06T09:29:50.056Z,9.07
2018-07-06T09:32:18.063Z,8.23
2018-07-06T09:34:46.094Z,8.90
2018-07-06T09:37:14.115Z,6.47
2018-07-06T09:39:42.810Z,9.53
2018-07-06T09:42:10.867Z,10.03
2018-07-06T09:44:38.879Z,9.43
2018-07-06T09:47:06.909Z,6.93
2018-07-06T09:49:34.907Z,6.37
2018-07-06T09:52:02.942Z,7.10
2018-07-06T09:54:30.951Z,8.23
2018-07-06T09:56:58.939Z,7.80
2018-07-06T09:59:26.944Z,8.10
2018-07-06T10:01:54.994Z,7.23
2018-07-06T10:04:23.071Z,11.87
2018-07-06T10:06:51.003Z,9.63
2018-07-06T10:09:19.014Z,8.30
2018-07-06T10:11:47.127Z,7.53
2018-07-06T10:14:15.114Z,6.20
2018-07-06T10:16:43.141Z,8.00
2018-07-06T10:19:11.115Z,7.17
2018-07-06T10:21:39.112Z,7.47
2018-07-06T10:24:07.157Z,8.03
2018-07-06T10:26:35.226Z,7.60
2018-07-06T10:29:07.862Z,6.23
2018-07-06T10:31:42.149Z,8.43
2018-07-06T10:34:10.191Z,8.50
2018-07-06T10:36:38.180Z,7.87
2018-07-06T10:39:06.208Z,5.10
2018-07-06T10:41:34.226Z,8.37
2018-07-06T10:44:02.236Z,7.47
2018-07-06T10:46:30.222Z,7.00
2018-07-06T10:48:58.242Z,7.80
2018-07-06T10:51:26.348Z,5.57
2018-07-06T10:53:54.375Z,4.87
2018-07-06T10:56:22.385Z,7.17
2018-07-06T10:58:50.385Z,5.70
2018-07-06T11:01:18.388Z,6.13
2018-07-06T11:03:46.396Z,5.37
2018-07-06T11:06:14.406Z,6.60
2018-07-06T11:08:42.435Z,6.40
2018-07-06T11:11:10.418Z,5.13
2018-07-06T11:13:38.483Z,5.83
2018-07-06T11:16:06.659Z,8.47
2018-07-06T11:18:34.655Z,5.10
2018-07-06T11:21:02.687Z,6.43
2018-07-06T11:23:30.771Z,5.27
2018-07-06T11:25:58.811Z,5.93
2018-07-06T11:28:26.820Z,4.17
2018-07-06T11:30:54.807Z,5.17
2018-07-06T11:33:22.831Z,3.77
2018-07-06T11:35:50.851Z,4.87
2018-07-06T11:38:18.899Z,5.23
2018-07-06T11:40:46.907Z,4.03
2018-07-06T11:45:49.539Z,6.67
2018-07-06T11:48:17.510Z,7.40
2018-07-06T11:50:45.595Z,5.40
2018-07-06T11:53:13.592Z,5.83
2018-07-06T11:55:41.588Z,6.40
2018-07-06T11:58:09.614Z,3.73
2018-07-06T12:00:37.559Z,5.43
2018-07-06T12:03:05.585Z,5.90
2018-07-06T12:05:33.574Z,4.87
2018-07-06T12:08:01.585Z,5.13
2018-07-06T12:10:29.648Z,4.83
2018-07-06T12:12:57.626Z,3.77
2018-07-06T12:15:25.636Z,14.93
2018-07-06T12:17:53.610Z,8.67
2018-07-06T12:20:21.602Z,7.23
2018-07-06T12:22:49.653Z,3.37
2018-07-06T12:25:17.642Z,3.40
2018-07-06T12:27:45.653Z,4.47
2018-07-06T12:30:13.656Z,4.17
2018-07-06T12:32:41.743Z,2.83
2018-07-06T12:35:09.799Z,4.53
2018-07-06T12:37:37.851Z,8.13
2018-07-06T12:40:05.835Z,4.10
2018-07-06T12:42:33.826Z,6.13
2018-07-06T12:45:01.823Z,3.50
2018-07-06T12:47:29.879Z,4.40
2018-07-06T12:49:57.862Z,2.77
2018-07-06T12:52:25.862Z,4.03
2018-07-06T12:54:53.838Z,4.60
2018-07-06T12:57:21.869Z,4.20
2018-07-06T12:59:49.974Z,4.27
2018-07-06T13:02:17.972Z,3.03
2018-07-06T13:04:46.122Z,8.13
2018-07-06T13:07:14.734Z,4.20
2018-07-06T13:09:42.732Z,8.77
2018-07-06T13:12:10.835Z,7.57
2018-07-06T13:14:39.066Z,4.83
2018-07-06T13:17:07.081Z,7.60
2018-07-06T13:19:35.086Z,3.63
2018-07-06T13:22:03.078Z,2.63
2018-07-06T13:24:31.079Z,3.50
2018-07-06T13:26:59.820Z,6.20
2018-07-06T13:29:27.818Z,5.67
2018-07-06T13:31:55.815Z,6.50
2018-07-06T13:34:23.874Z,6.27
2018-07-06T13:36:51.915Z,3.73
2018-07-06T13:39:20.006Z,2.70
2018-07-06T13:41:48.025Z,6.40
2018-07-06T13:44:15.986Z,5.43
2018-07-06T13:46:44.026Z,4.40
2018-07-06T13:49:12.096Z,3.40
2018-07-06T13:51:40.148Z,2.83
2018-07-06T13:54:08.179Z,5.10
2018-07-06T13:56:36.380Z,4.70
2018-07-06T13:59:04.541Z,3.40
2018-07-06T14:01:32.664Z,4.43
2018-07-06T14:04:00.697Z,5.63
2018-07-06T14:06:28.702Z,5.83
2018-07-06T14:08:56.719Z,4.17
2018-07-06T14:11:24.716Z,5.23
2018-07-06T14:13:52.726Z,5.57
2018-07-06T14:16:20.748Z,5.13
2018-07-06T14:18:48.743Z,5.07
2018-07-06T14:21:16.802Z,4.83
2018-07-06T14:23:44.862Z,6.43
2018-07-06T14:26:13.218Z,4.77
2018-07-06T14:28:41.222Z,4.00
2018-07-06T14:31:09.210Z,6.70
2018-07-06T14:33:37.266Z,4.63
2018-07-06T14:36:05.377Z,1.77
2018-07-06T14:38:33.474Z,4.77
2018-07-06T14:41:01.548Z,4.00
2018-07-06T14:43:29.594Z,5.67
2018-07-06T14:45:57.631Z,4.70
2018-07-06T14:48:25.762Z,4.90
2018-07-06T14:50:53.762Z,5.77
2018-07-06T14:53:21.833Z,4.33
2018-07-06T14:58:38.383Z,4.30
2018-07-06T15:01:06.418Z,4.60
2018-07-06T15:03:34.507Z,4.50
2018-07-06T15:06:02.544Z,4.40
2018-07-06T15:08:30.574Z,5.83
2018-07-06T15:10:58.775Z,10.63
2018-07-06T15:13:26.874Z,6.20
2018-07-06T15:15:55.342Z,3.37
2018-07-06T15:18:23.803Z,2.50
2018-07-06T15:20:51.906Z,5.87
2018-07-06T15:23:20.035Z,2.23
2018-07-06T15:25:48.136Z,4.97
2018-07-06T15:28:16.223Z,4.70
2018-07-06T15:30:44.250Z,5.07
2018-07-06T15:33:12.370Z,6.37
2018-07-06T15:35:42.623Z,4.50
2018-07-06T15:38:13.732Z,4.07
2018-07-06T15:40:41.905Z,3.60
2018-07-06T15:45:38.660Z,3.60
2018-07-06T15:48:06.767Z,3.80
2018-07-06T15:50:34.891Z,6.33
2018-07-06T15:53:03.035Z,13.10
2018-07-06T15:55:31.140Z,67.17
2018-07-06T15:57:59.215Z,348.63
2018-07-06T16:00:27.299Z,410.13
2018-07-06T16:02:55.379Z,95.07
2018-07-06T16:05:23.374Z,306.43
2018-07-06T16:07:51.411Z,447.67
2018-07-06T16:10:19.407Z,387.97
2018-07-06T16:12:47.410Z,347.10
2018-07-06T16:15:15.411Z,268.67
2018-07-06T16:17:43.416Z,183.73
2018-07-06T16:20:11.447Z,383.77
2018-07-06T16:22:39.458Z,272.43
2018-07-06T16:25:07.499Z,159.30
2018-07-06T16:27:35.482Z,112.90
2018-07-06T16:30:03.531Z,206.67
2018-07-06T16:32:31.556Z,123.23
2018-07-06T16:34:59.558Z,124.73
2018-07-06T16:37:27.569Z,107.97
2018-07-06T16:39:55.643Z,57.77
2018-07-06T16:42:23.649Z,70.67
2018-07-06T16:44:51.707Z,48.57
2018-07-06T16:47:19.780Z,49.67
2018-07-06T16:49:47.767Z,24.93
2018-07-06T16:52:15.809Z,29.03
2018-07-06T16:54:43.838Z,31.27
2018-07-06T16:57:12.036Z,37.07
2018-07-06T16:59:40.103Z,25.37
2018-07-06T17:02:08.163Z,14.67
2018-07-06T17:04:36.188Z,16.43
2018-07-06T17:07:04.206Z,14.47
2018-07-06T17:09:32.259Z,17.80
2018-07-06T17:12:00.254Z,17.97
2018-07-06T17:14:28.327Z,16.67
2018-07-06T17:16:56.458Z,13.07
2018-07-06T17:19:24.589Z,10.67
2018-07-06T17:21:52.749Z,13.20
2018-07-06T17:24:20.850Z,9.33
2018-07-06T17:26:50.505Z,6.70
2018-07-06T17:29:18.595Z,6.97
2018-07-06T17:31:46.648Z,5.60
2018-07-06T17:34:14.716Z,6.90
2018-07-06T17:36:42.768Z,7.50
2018-07-06T17:39:10.842Z,6.50
2018-07-06T17:41:38.927Z,4.17
2018-07-06T17:44:06.951Z,3.33
2018-07-06T17:46:35.075Z,3.07
2018-07-06T17:49:03.249Z,4.00
2018-07-06T17:51:31.350Z,5.00
2018-07-06T17:53:59.472Z,4.20
2018-07-06T17:56:27.906Z,3.80
2018-07-06T17:58:55.840Z,4.90
2018-07-06T18:01:38.559Z,5.63
2018-07-06T18:04:06.609Z,4.37
2018-07-06T18:06:34.728Z,6.97
2018-07-06T18:09:04.001Z,5.87
2018-07-06T18:11:32.070Z,5.40
2018-07-06T18:14:00.105Z,3.70
2018-07-06T18:16:28.088Z,4.60
2018-07-06T18:18:56.081Z,6.23
2018-07-06T18:21:24.063Z,4.03
2018-07-06T18:23:52.130Z,6.53
2018-07-06T18:26:20.171Z,4.27
2018-07-06T18:28:48.174Z,4.03
2018-07-06T18:31:16.189Z,6.03
2018-07-06T18:33:44.235Z,6.03
2018-07-06T18:36:12.269Z,4.80
2018-07-06T18:38:40.262Z,8.40
2018-07-06T18:41:08.302Z,7.30
2018-07-06T18:43:36.327Z,8.20
2018-07-06T18:46:04.332Z,4.40
2018-07-06T18:48:32.392Z,4.47
2018-07-06T18:51:00.499Z,5.67
2018-07-06T18:53:28.525Z,6.67
2018-07-06T18:55:56.538Z,5.63
2018-07-06T18:58:24.554Z,10.90
2018-07-06T19:00:52.582Z,11.13
2018-07-06T19:03:20.635Z,9.90
2018-07-06T19:05:48.689Z,11.27
2018-07-06T19:08:16.804Z,7.50
2018-07-06T19:10:44.890Z,6.80
2018-07-06T19:13:13.009Z,7.73
2018-07-06T19:15:41.497Z,7.30
2018-07-06T19:18:10.005Z,7.23
2018-07-06T19:20:38.212Z,7.33
2018-07-06T19:23:06.318Z,5.37
2018-07-06T19:25:34.453Z,4.83
2018-07-06T19:28:02.501Z,7.33
2018-07-06T19:30:30.701Z,8.67
2018-07-06T19:32:59.301Z,8.07
2018-07-06T19:35:27.492Z,7.30
2018-07-06T19:37:55.613Z,7.47
2018-07-06T19:40:23.845Z,5.43
2018-07-06T19:42:51.977Z,5.07
2018-07-06T19:45:20.108Z,6.53
2018-07-06T19:47:48.222Z,5.97
2018-07-06T19:50:16.502Z,7.80
2018-07-06T19:52:44.652Z,9.63
2018-07-06T19:55:12.753Z,10.30
2018-07-06T19:57:40.987Z,7.93
2018-07-06T20:02:31.773Z,7.47
2018-07-06T20:04:59.839Z,9.70
2018-07-06T20:07:27.931Z,9.63
2018-07-06T20:09:56.032Z,6.17
2018-07-06T20:12:24.330Z,9.30
2018-07-06T20:14:52.472Z,9.73
2018-07-06T20:19:55.228Z,9.83
2018-07-06T20:22:23.359Z,5.70
2018-07-06T20:24:51.515Z,9.97
2018-07-06T20:27:19.558Z,6.43
2018-07-06T20:29:47.616Z,4.80
2018-07-06T20:32:15.732Z,6.73
2018-07-06T20:34:43.824Z,5.90
2018-07-06T20:37:11.929Z,6.70
2018-07-06T20:39:39.963Z,7.60
2018-07-06T20:42:08.029Z,7.10
2018-07-06T20:44:36.190Z,7.83
2018-07-06T20:47:04.321Z,5.77
2018-07-06T20:49:32.452Z,6.20
2018-07-06T20:52:01.022Z,8.60
2018-07-06T20:54:29.266Z,8.37
2018-07-06T20:56:58.114Z,4.87
2018-07-06T20:59:26.277Z,8.37
2018-07-06T21:01:54.361Z,4.43
2018-07-06T21:04:22.499Z,4.07
2018-07-06T21:06:50.730Z,6.07
2018-07-06T21:09:18.948Z,8.73
2018-07-06T21:11:47.109Z,6.53
2018-07-06T21:14:15.251Z,7.37
2018-07-06T21:16:43.426Z,11.13
2018-07-06T21:19:11.458Z,5.03
2018-07-06T21:21:39.698Z,4.90
2018-07-06T21:24:07.783Z,5.57
2018-07-06T21:26:35.938Z,4.90
2018-07-06T21:29:04.150Z,6.27
2018-07-06T21:31:32.507Z,7.23
2018-07-06T21:34:00.587Z,6.93
2018-07-06T21:36:28.652Z,7.33
2018-07-06T21:38:56.693Z,7.50
2018-07-06T21:41:24.702Z,6.20
2018-07-06T21:43:52.755Z,4.43
2018-07-06T21:46:20.780Z,6.13
2018-07-06T21:48:48.793Z,3.90
2018-07-06T21:51:16.806Z,6.53
2018-07-06T21:53:44.808Z,4.73
2018-07-06T21:56:12.895Z,4.07
2018-07-06T21:58:40.928Z,4.73
2018-07-06T22:01:08.936Z,4.07
2018-07-06T22:03:36.962Z,5.03
2018-07-06T22:06:04.966Z,4.73
2018-07-06T22:08:33.242Z,4.07
2018-07-06T22:11:03.599Z,3.93
2018-07-06T22:13:31.581Z,4.57
2018-07-06T22:15:59.605Z,5.00
2018-07-06T22:18:27.673Z,4.07
2018-07-06T22:20:55.672Z,4.30
2018-07-06T22:23:23.666Z,4.27
2018-07-06T22:25:51.678Z,2.57
2018-07-06T22:28:20.103Z,4.67
2018-07-06T22:30:48.184Z,4.70
2018-07-06T22:33:16.216Z,4.37
2018-07-06T22:35:44.297Z,3.97
2018-07-06T22:38:12.296Z,3.97
2018-07-06T22:40:40.272Z,4.10
2018-07-06T22:43:08.279Z,3.27
2018-07-06T22:45:36.331Z,3.83
2018-07-06T22:48:04.335Z,3.17
2018-07-06T22:50:32.326Z,5.87
2018-07-06T22:53:00.353Z,4.37
2018-07-06T22:55:28.359Z,3.90
2018-07-06T22:57:56.381Z,2.90
2018-07-06T23:00:24.363Z,2.53
2018-07-06T23:02:57.654Z,2.70
2018-07-06T23:05:30.731Z,4.07
2018-07-06T23:08:03.200Z,3.23
2018-07-06T23:10:35.280Z,2.90
2018-07-06T23:13:08.370Z,3.37
2018-07-06T23:15:42.515Z,3.80
2018-07-06T23:18:14.887Z,3.27
2018-07-06T23:20:47.481Z,3.50
2018-07-06T23:23:19.853Z,4.47
2018-07-06T23:25:52.182Z,3.43
2018-07-06T23:28:24.433Z,3.10
2018-07-06T23:30:56.791Z,3.20
2018-07-06T23:33:29.876Z,3.67
2018-07-06T23:36:02.110Z,3.60
2018-07-06T23:38:34.995Z,2.77
2018-07-06T23:41:08.019Z,3.27
2018-07-06T23:43:39.960Z,3.47
2018-07-06T23:46:13.783Z,4.73
2018-07-06T23:48:46.395Z,2.97
2018-07-06T23:51:19.098Z,4.57
2018-07-06T23:53:51.753Z,3.00
2018-07-06T23:56:24.623Z,3.20
2018-07-06T23:58:57.500Z,3.03
